sensor_id;sensor_type;location;lat;lon;timestamp;pressure;altitude;pressure_sealevel;temperature;humidity
12963;BME280;6546;49.882;8.666;2023-02-13T00:02:07;102181.38;;;7.09;74.47
12963;BME280;6546;49.882;8.666;2023-02-13T00:04:36;102179.63;;;7.10;74.33
12963;BME280;6546;49.882;8.666;2023-02-13T00:07:03;102175.81;;;7.01;74.95
12963;BME280;6546;49.882;8.666;2023-02-13T00:09:30;102175.81;;;7.01;74.75
12963;BME280;6546;49.882;8.666;2023-02-13T00:11:57;102171.78;;;6.97;74.91
12963;BME280;6546;49.882;8.666;2023-02-13T00:14:26;102169.19;;;6.97;74.66
12963;BME280;6546;49.882;8.666;2023-02-13T00:16:54;102173.59;;;6.95;74.54
12963;BME280;6546;49.882;8.666;2023-02-13T00:19:21;102178.25;;;6.88;74.71
12963;BME280;6546;49.882;8.666;2023-02-13T00:21:47;102172.38;;;6.86;74.72
12963;BME280;6546;49.882;8.666;2023-02-13T00:24:15;102172.44;;;6.85;74.57
12963;BME280;6546;49.882;8.666;2023-02-13T00:26:42;102172.72;;;6.80;74.62
12963;BME280;6546;49.882;8.666;2023-02-13T00:29:08;102176.13;;;6.81;74.85
12963;BME280;6546;49.882;8.666;2023-02-13T00:31:37;102179.59;;;6.80;74.61
12963;BME280;6546;49.882;8.666;2023-02-13T00:34:04;102174.56;;;6.78;74.90
12963;BME280;6546;49.882;8.666;2023-02-13T00:36:31;102170.22;;;6.79;74.79
12963;BME280;6546;49.882;8.666;2023-02-13T00:38:58;102171.22;;;6.76;75.02
12963;BME280;6546;49.882;8.666;2023-02-13T00:41:25;102178.88;;;6.78;74.99
12963;BME280;6546;49.882;8.666;2023-02-13T00:43:52;102173.72;;;6.78;74.82
12963;BME280;6546;49.882;8.666;2023-02-13T00:46:19;102165.59;;;6.70;75.07
12963;BME280;6546;49.882;8.666;2023-02-13T00:48:48;102169.06;;;6.69;75.09
12963;BME280;6546;49.882;8.666;2023-02-13T00:51:15;102166.41;;;6.70;75.09
12963;BME280;6546;49.882;8.666;2023-02-13T00:53:42;102166.50;;;6.69;75.00
12963;BME280;6546;49.882;8.666;2023-02-13T00:56:09;102168.25;;;6.68;74.97
12963;BME280;6546;49.882;8.666;2023-02-13T00:58:36;102167.50;;;6.66;75.15
12963;BME280;6546;49.882;8.666;2023-02-13T01:01:03;102156.47;;;6.64;74.90
12963;BME280;6546;49.882;8.666;2023-02-13T01:03:30;102159.28;;;6.60;75.30
12963;BME280;6546;49.882;8.666;2023-02-13T01:05:58;102164.25;;;6.63;75.30
12963;BME280;6546;49.882;8.666;2023-02-13T01:08:26;102159.47;;;6.57;75.41
12963;BME280;6546;49.882;8.666;2023-02-13T01:10:54;102163.03;;;6.54;75.55
12963;BME280;6546;49.882;8.666;2023-02-13T01:13:21;102164.72;;;6.55;75.45
12963;BME280;6546;49.882;8.666;2023-02-13T01:15:48;102164.59;;;6.57;75.51
12963;BME280;6546;49.882;8.666;2023-02-13T01:18:18;102163.59;;;6.59;75.62
12963;BME280;6546;49.882;8.666;2023-02-13T01:20:45;102158.63;;;6.56;75.64
12963;BME280;6546;49.882;8.666;2023-02-13T01:23:22;102163.94;;;6.53;75.29
12963;BME280;6546;49.882;8.666;2023-02-13T01:25:50;102164.22;;;6.49;75.09
12963;BME280;6546;49.882;8.666;2023-02-13T01:28:17;102164.22;;;6.49;75.04
12963;BME280;6546;49.882;8.666;2023-02-13T01:30:44;102155.91;;;6.44;75.16
12963;BME280;6546;49.882;8.666;2023-02-13T01:33:13;102166.28;;;6.42;75.32
12963;BME280;6546;49.882;8.666;2023-02-13T01:35:40;102168.09;;;6.40;75.15
12963;BME280;6546;49.882;8.666;2023-02-13T01:38:07;102166.13;;;6.29;75.49
12963;BME280;6546;49.882;8.666;2023-02-13T01:40:35;102163.41;;;6.32;75.29
12963;BME280;6546;49.882;8.666;2023-02-13T01:43:02;102166.13;;;6.29;75.34
12963;BME280;6546;49.882;8.666;2023-02-13T01:45:30;102164.78;;;6.22;75.30
12963;BME280;6546;49.882;8.666;2023-02-13T01:47:59;102163.22;;;6.20;75.57
12963;BME280;6546;49.882;8.666;2023-02-13T01:50:34;102161.78;;;6.14;75.84
12963;BME280;6546;49.882;8.666;2023-02-13T01:53:08;102160.16;;;6.13;75.65
12963;BME280;6546;49.882;8.666;2023-02-13T01:55:42;102159.31;;;6.13;75.58
12963;BME280;6546;49.882;8.666;2023-02-13T01:58:13;102163.06;;;6.07;75.83
12963;BME280;6546;49.882;8.666;2023-02-13T02:00:41;102153.84;;;6.03;76.00
12963;BME280;6546;49.882;8.666;2023-02-13T02:03:16;102158.03;;;6.04;75.79
12963;BME280;6546;49.882;8.666;2023-02-13T02:05:44;102159.81;;;6.04;75.40
12963;BME280;6546;49.882;8.666;2023-02-13T02:08:13;102163.34;;;6.01;75.45
12963;BME280;6546;49.882;8.666;2023-02-13T02:10:42;102152.56;;;5.95;75.68
12963;BME280;6546;49.882;8.666;2023-02-13T02:13:13;102159.16;;;6.00;75.51
12963;BME280;6546;49.882;8.666;2023-02-13T02:15:41;102156.81;;;5.96;75.41
12963;BME280;6546;49.882;8.666;2023-02-13T02:18:12;102158.97;;;5.88;75.77
12963;BME280;6546;49.882;8.666;2023-02-13T02:24:23;102148.75;;;5.86;75.68
12963;BME280;6546;49.882;8.666;2023-02-13T02:33:17;102138.81;;;5.78;75.99
12963;BME280;6546;49.882;8.666;2023-02-13T02:35:55;102142.50;;;5.74;75.94
12963;BME280;6546;49.882;8.666;2023-02-13T02:38:44;102142.50;;;5.74;75.85
12963;BME280;6546;49.882;8.666;2023-02-13T02:41:21;102146.13;;;5.70;75.92
12963;BME280;6546;49.882;8.666;2023-02-13T02:44:14;102143.63;;;5.69;75.77
12963;BME280;6546;49.882;8.666;2023-02-13T02:46:56;102146.44;;;5.64;75.68
12963;BME280;6546;49.882;8.666;2023-02-13T02:49:54;102148.25;;;5.62;75.93
12963;BME280;6546;49.882;8.666;2023-02-13T02:52:36;102132.47;;;5.53;75.78
12963;BME280;6546;49.882;8.666;2023-02-13T02:55:19;102151.06;;;5.58;75.90
12963;BME280;6546;49.882;8.666;2023-02-13T02:57:54;102146.75;;;5.58;75.61
12963;BME280;6546;49.882;8.666;2023-02-13T03:00:51;102146.81;;;5.57;75.70
12963;BME280;6546;49.882;8.666;2023-02-13T03:03:36;102150.28;;;5.56;75.60
12963;BME280;6546;49.882;8.666;2023-02-13T03:06:28;102155.75;;;5.50;75.52
12963;BME280;6546;49.882;8.666;2023-02-13T03:09:00;102154.13;;;5.49;75.48
12963;BME280;6546;49.882;8.666;2023-02-13T03:11:48;102152.44;;;5.48;75.51
12963;BME280;6546;49.882;8.666;2023-02-13T03:14:34;102138.25;;;5.41;75.57
12963;BME280;6546;49.882;8.666;2023-02-13T03:17:02;102151.75;;;5.44;75.65
12963;BME280;6546;49.882;8.666;2023-02-13T03:20:02;102153.13;;;5.34;75.68
12963;BME280;6546;49.882;8.666;2023-02-13T03:23:02;102151.19;;;5.39;76.47
12963;BME280;6546;49.882;8.666;2023-02-13T03:25:46;102153.84;;;5.53;77.18
12963;BME280;6546;49.882;8.666;2023-02-13T03:28:26;102155.88;;;5.64;76.71
12963;BME280;6546;49.882;8.666;2023-02-13T03:31:22;102136.22;;;5.63;76.29
12963;BME280;6546;49.882;8.666;2023-02-13T03:33:57;102155.66;;;5.68;76.63
12963;BME280;6546;49.882;8.666;2023-02-13T03:36:32;102160.69;;;5.70;76.59
12963;BME280;6546;49.882;8.666;2023-02-13T03:39:21;102153.72;;;5.72;76.46
12963;BME280;6546;49.882;8.666;2023-02-13T03:41:52;102149.69;;;5.68;76.40
12963;BME280;6546;49.882;8.666;2023-02-13T03:44:25;102156.41;;;5.70;76.49
12963;BME280;6546;49.882;8.666;2023-02-13T03:46:58;102144.25;;;5.57;76.65
12963;BME280;6546;49.882;8.666;2023-02-13T03:49:29;102156.03;;;5.61;76.32
12963;BME280;6546;49.882;8.666;2023-02-13T03:52:18;102157.03;;;5.58;76.55
12963;BME280;6546;49.882;8.666;2023-02-13T03:54:53;102158.00;;;5.56;76.54
12963;BME280;6546;49.882;8.666;2023-02-13T03:57:40;102163.97;;;5.56;76.09
12963;BME280;6546;49.882;8.666;2023-02-13T04:00:31;102165.97;;;5.51;75.79
12963;BME280;6546;49.882;8.666;2023-02-13T04:03:09;102174.13;;;5.42;75.90
12963;BME280;6546;49.882;8.666;2023-02-13T04:05:42;102166.66;;;5.38;75.43
12963;BME280;6546;49.882;8.666;2023-02-13T04:08:10;102162.81;;;5.29;75.42
12963;BME280;6546;49.882;8.666;2023-02-13T04:10:44;102167.97;;;5.29;75.13
12963;BME280;6546;49.882;8.666;2023-02-13T04:13:18;102167.72;;;5.34;75.27
12963;BME280;6546;49.882;8.666;2023-02-13T04:15:51;102167.59;;;5.19;75.16
12963;BME280;6546;49.882;8.666;2023-02-13T04:18:28;102163.97;;;5.06;75.53
12963;BME280;6546;49.882;8.666;2023-02-13T04:20:56;102169.69;;;4.94;76.10
12963;BME280;6546;49.882;8.666;2023-02-13T04:23:22;102163.25;;;4.86;76.26
12963;BME280;6546;49.882;8.666;2023-02-13T04:25:53;102165.13;;;4.82;76.48
12963;BME280;6546;49.882;8.666;2023-02-13T04:28:21;102164.97;;;4.85;76.92
12963;BME280;6546;49.882;8.666;2023-02-13T04:30:47;102162.34;;;4.87;77.02
12963;BME280;6546;49.882;8.666;2023-02-13T04:33:15;102161.31;;;4.91;77.00
12963;BME280;6546;49.882;8.666;2023-02-13T04:35:41;102156.72;;;4.97;77.17
12963;BME280;6546;49.882;8.666;2023-02-13T04:38:08;102159.44;;;4.94;77.32
12963;BME280;6546;49.882;8.666;2023-02-13T04:40:35;102147.66;;;4.90;77.61
12963;BME280;6546;49.882;8.666;2023-02-13T04:43:02;102152.63;;;4.93;77.46
12963;BME280;6546;49.882;8.666;2023-02-13T04:45:29;102157.91;;;4.90;77.52
12963;BME280;6546;49.882;8.666;2023-02-13T04:47:56;102155.50;;;4.87;77.25
12963;BME280;6546;49.882;8.666;2023-02-13T04:50:23;102149.88;;;4.79;77.79
12963;BME280;6546;49.882;8.666;2023-02-13T04:52:52;102155.47;;;4.70;78.14
12963;BME280;6546;49.882;8.666;2023-02-13T04:55:20;102155.63;;;4.67;78.33
12963;BME280;6546;49.882;8.666;2023-02-13T04:57:46;102148.81;;;4.66;78.26
12963;BME280;6546;49.882;8.666;2023-02-13T05:00:15;102148.22;;;4.61;78.29
12963;BME280;6546;49.882;8.666;2023-02-13T05:02:42;102124.38;;;4.40;78.08
12963;BME280;6546;49.882;8.666;2023-02-13T05:05:08;102127.66;;;4.44;77.98
12963;BME280;6546;49.882;8.666;2023-02-13T05:07:35;102143.03;;;4.44;78.25
12963;BME280;6546;49.882;8.666;2023-02-13T05:10:01;102139.91;;;4.37;77.89
12963;BME280;6546;49.882;8.666;2023-02-13T05:12:31;102142.44;;;4.39;77.99
12963;BME280;6546;49.882;8.666;2023-02-13T05:14:57;102134.75;;;4.39;78.54
12963;BME280;6546;49.882;8.666;2023-02-13T05:17:25;102141.75;;;4.35;78.85
12963;BME280;6546;49.882;8.666;2023-02-13T05:19:52;102136.66;;;4.34;78.58
12963;BME280;6546;49.882;8.666;2023-02-13T05:22:18;102122.75;;;4.20;78.53
12963;BME280;6546;49.882;8.666;2023-02-13T05:25:03;102131.28;;;4.21;79.21
12963;BME280;6546;49.882;8.666;2023-02-13T05:27:29;102138.06;;;4.22;79.57
12963;BME280;6546;49.882;8.666;2023-02-13T05:29:56;102142.50;;;4.18;80.03
12963;BME280;6546;49.882;8.666;2023-02-13T05:32:22;102128.72;;;4.21;79.82
12963;BME280;6546;49.882;8.666;2023-02-13T05:34:51;102135.56;;;4.20;79.81
12963;BME280;6546;49.882;8.666;2023-02-13T05:37:18;102137.44;;;4.17;79.04
12963;BME280;6546;49.882;8.666;2023-02-13T05:39:44;102137.53;;;4.15;79.07
12963;BME280;6546;49.882;8.666;2023-02-13T05:42:11;102135.31;;;4.08;79.43
12963;BME280;6546;49.882;8.666;2023-02-13T05:44:37;102143.34;;;4.19;79.17
12963;BME280;6546;49.882;8.666;2023-02-13T05:47:04;102139.91;;;4.20;79.17
12963;BME280;6546;49.882;8.666;2023-02-13T05:49:30;102136.00;;;4.11;79.54
12963;BME280;6546;49.882;8.666;2023-02-13T05:51:58;102138.22;;;4.19;78.92
12963;BME280;6546;49.882;8.666;2023-02-13T05:54:25;102144.72;;;4.26;79.03
12963;BME280;6546;49.882;8.666;2023-02-13T05:56:51;102145.78;;;4.22;79.03
12963;BME280;6546;49.882;8.666;2023-02-13T05:59:18;102134.81;;;4.18;79.27
12963;BME280;6546;49.882;8.666;2023-02-13T06:01:48;102140.06;;;4.34;78.63
12963;BME280;6546;49.882;8.666;2023-02-13T06:04:14;102139.22;;;4.34;78.78
12963;BME280;6546;49.882;8.666;2023-02-13T06:06:41;102132.59;;;4.30;79.01
12963;BME280;6546;49.882;8.666;2023-02-13T06:09:10;102134.69;;;4.21;79.39
12963;BME280;6546;49.882;8.666;2023-02-13T06:11:39;102139.66;;;4.24;79.58
12963;BME280;6546;49.882;8.666;2023-02-13T06:14:05;102140.69;;;4.20;79.73
12963;BME280;6546;49.882;8.666;2023-02-13T06:16:32;102142.78;;;4.31;79.35
12963;BME280;6546;49.882;8.666;2023-02-13T06:18:59;102139.47;;;4.29;79.59
12963;BME280;6546;49.882;8.666;2023-02-13T06:21:25;102149.88;;;4.26;79.79
12963;BME280;6546;49.882;8.666;2023-02-13T06:23:52;102144.72;;;4.26;79.92
12963;BME280;6546;49.882;8.666;2023-02-13T06:26:23;102147.69;;;4.17;80.34
12963;BME280;6546;49.882;8.666;2023-02-13T06:28:50;102151.66;;;4.24;80.37
12963;BME280;6546;49.882;8.666;2023-02-13T06:31:16;102142.88;;;4.30;79.53
12963;BME280;6546;49.882;8.666;2023-02-13T06:33:43;102148.88;;;4.29;80.01
12963;BME280;6546;49.882;8.666;2023-02-13T06:36:09;102153.50;;;4.20;79.87
12963;BME280;6546;49.882;8.666;2023-02-13T06:38:36;102150.16;;;4.20;80.20
12963;BME280;6546;49.882;8.666;2023-02-13T06:41:03;102147.34;;;4.24;79.94
12963;BME280;6546;49.882;8.666;2023-02-13T06:43:31;102156.88;;;4.22;80.17
12963;BME280;6546;49.882;8.666;2023-02-13T06:45:58;102145.97;;;4.17;80.29
12963;BME280;6546;49.882;8.666;2023-02-13T06:48:25;102149.84;;;4.07;80.76
12963;BME280;6546;49.882;8.666;2023-02-13T06:50:52;102136.84;;;3.93;81.04
12963;BME280;6546;49.882;8.666;2023-02-13T06:53:19;102151.59;;;4.07;80.64
12963;BME280;6546;49.882;8.666;2023-02-13T06:55:50;102147.41;;;4.04;81.02
12963;BME280;6546;49.882;8.666;2023-02-13T06:58:17;102135.13;;;3.94;80.62
12963;BME280;6546;49.882;8.666;2023-02-13T07:00:45;102157.53;;;4.07;80.26
12963;BME280;6546;49.882;8.666;2023-02-13T07:03:21;102160.94;;;4.08;80.55
12963;BME280;6546;49.882;8.666;2023-02-13T07:05:47;102159.50;;;4.02;80.67
12963;BME280;6546;49.882;8.666;2023-02-13T07:08:16;102151.03;;;4.00;80.62
12963;BME280;6546;49.882;8.666;2023-02-13T07:10:43;102158.75;;;4.00;80.71
12963;BME280;6546;49.882;8.666;2023-02-13T07:13:10;102161.28;;;4.00;80.55
12963;BME280;6546;49.882;8.666;2023-02-13T07:15:37;102156.91;;;4.02;79.97
12963;BME280;6546;49.882;8.666;2023-02-13T07:18:05;102162.47;;;3.93;80.98
12963;BME280;6546;49.882;8.666;2023-02-13T07:20:35;102160.94;;;4.08;80.18
12963;BME280;6546;49.882;8.666;2023-02-13T07:23:03;102164.59;;;4.02;80.14
12963;BME280;6546;49.882;8.666;2023-02-13T07:25:31;102168.97;;;4.00;80.55
12963;BME280;6546;49.882;8.666;2023-02-13T07:28:00;102177.44;;;4.02;80.53
12963;BME280;6546;49.882;8.666;2023-02-13T07:30:28;102167.88;;;4.06;80.55
12963;BME280;6546;49.882;8.666;2023-02-13T07:32:57;102162.19;;;3.99;80.73
12963;BME280;6546;49.882;8.666;2023-02-13T07:35:34;102170.50;;;4.04;80.76
12963;BME280;6546;49.882;8.666;2023-02-13T07:38:05;102169.47;;;4.08;80.70
12963;BME280;6546;49.882;8.666;2023-02-13T07:40:31;102158.38;;;4.08;80.81
12963;BME280;6546;49.882;8.666;2023-02-13T07:42:59;102165.91;;;4.11;80.65
12963;BME280;6546;49.882;8.666;2023-02-13T07:45:26;102163.31;;;4.12;80.86
12963;BME280;6546;49.882;8.666;2023-02-13T07:47:53;102162.88;;;4.21;80.38
12963;BME280;6546;49.882;8.666;2023-02-13T07:50:20;102175.88;;;4.17;80.53
12963;BME280;6546;49.882;8.666;2023-02-13T07:52:53;102169.41;;;4.29;80.66
12963;BME280;6546;49.882;8.666;2023-02-13T07:55:20;102162.44;;;4.31;80.59
12963;BME280;6546;49.882;8.666;2023-02-13T07:57:47;102160.97;;;4.44;80.25
12963;BME280;6546;49.882;8.666;2023-02-13T08:00:14;102171.25;;;4.44;80.23
12963;BME280;6546;49.882;8.666;2023-02-13T08:02:47;102176.16;;;4.48;80.16
12963;BME280;6546;49.882;8.666;2023-02-13T08:05:19;102170.06;;;4.51;80.10
12963;BME280;6546;49.882;8.666;2023-02-13T08:07:46;102160.50;;;4.54;79.66
12963;BME280;6546;49.882;8.666;2023-02-13T08:10:14;102169.16;;;4.52;80.25
12963;BME280;6546;49.882;8.666;2023-02-13T08:12:58;102173.72;;;4.64;79.94
12963;BME280;6546;49.882;8.666;2023-02-13T08:15:25;102183.53;;;4.73;79.49
12963;BME280;6546;49.882;8.666;2023-02-13T08:17:52;102181.72;;;4.75;79.45
12963;BME280;6546;49.882;8.666;2023-02-13T08:20:19;102170.34;;;4.81;79.05
12963;BME280;6546;49.882;8.666;2023-02-13T08:22:45;102171.03;;;4.84;79.18
12963;BME280;6546;49.882;8.666;2023-02-13T08:25:16;102184.31;;;4.92;78.93
12963;BME280;6546;49.882;8.666;2023-02-13T08:27:43;102178.34;;;4.92;78.78
12963;BME280;6546;49.882;8.666;2023-02-13T08:30:11;102178.34;;;4.92;78.81
12963;BME280;6546;49.882;8.666;2023-02-13T08:32:39;102176.63;;;4.92;78.50
12963;BME280;6546;49.882;8.666;2023-02-13T08:35:09;102183.56;;;4.90;78.29
12963;BME280;6546;49.882;8.666;2023-02-13T08:37:35;102176.63;;;4.92;78.43
12963;BME280;6546;49.882;8.666;2023-02-13T08:40:02;102175.78;;;4.92;78.37
12963;BME280;6546;49.882;8.666;2023-02-13T08:42:31;102185.22;;;4.91;78.59
12963;BME280;6546;49.882;8.666;2023-02-13T08:44:58;102176.63;;;4.92;78.28
12963;BME280;6546;49.882;8.666;2023-02-13T08:47:24;102178.88;;;4.98;78.87
12963;BME280;6546;49.882;8.666;2023-02-13T08:49:51;102182.81;;;5.05;78.35
12963;BME280;6546;49.882;8.666;2023-02-13T08:52:18;102180.19;;;5.07;77.95
12963;BME280;6546;49.882;8.666;2023-02-13T08:54:44;102191.16;;;5.10;77.79
12963;BME280;6546;49.882;8.666;2023-02-13T08:57:11;102185.88;;;5.13;77.76
12963;BME280;6546;49.882;8.666;2023-02-13T08:59:39;102183.19;;;5.15;77.51
12963;BME280;6546;49.882;8.666;2023-02-13T09:02:08;102180.41;;;5.19;77.32
12963;BME280;6546;49.882;8.666;2023-02-13T09:04:36;102182.59;;;5.27;77.12
12963;BME280;6546;49.882;8.666;2023-02-13T09:07:02;102189.19;;;5.33;76.91
12963;BME280;6546;49.882;8.666;2023-02-13T09:09:29;102182.53;;;5.28;77.08
12963;BME280;6546;49.882;8.666;2023-02-13T09:11:55;102186.97;;;5.42;76.56
12963;BME280;6546;49.882;8.666;2023-02-13T09:14:22;102189.31;;;5.47;76.02
12963;BME280;6546;49.882;8.666;2023-02-13T09:16:50;102181.44;;;5.50;75.61
12963;BME280;6546;49.882;8.666;2023-02-13T09:19:17;102177.66;;;5.57;75.52
12963;BME280;6546;49.882;8.666;2023-02-13T09:21:45;102180.06;;;5.60;75.54
12963;BME280;6546;49.882;8.666;2023-02-13T09:24:12;102179.06;;;5.62;75.35
12963;BME280;6546;49.882;8.666;2023-02-13T09:26:39;102185.41;;;5.72;74.86
12963;BME280;6546;49.882;8.666;2023-02-13T09:29:05;102182.16;;;5.69;75.49
12963;BME280;6546;49.882;8.666;2023-02-13T09:31:32;102179.38;;;5.73;74.91
12963;BME280;6546;49.882;8.666;2023-02-13T09:34:00;102174.00;;;5.78;74.59
12963;BME280;6546;49.882;8.666;2023-02-13T09:36:26;102174.38;;;5.88;74.63
12963;BME280;6546;49.882;8.666;2023-02-13T09:38:55;102172.50;;;5.91;74.14
12963;BME280;6546;49.882;8.666;2023-02-13T09:41:24;102181.28;;;6.03;73.56
12963;BME280;6546;49.882;8.666;2023-02-13T09:43:57;102169.09;;;6.06;73.83
12963;BME280;6546;49.882;8.666;2023-02-13T09:46:34;102178.88;;;6.15;73.69
12963;BME280;6546;49.882;8.666;2023-02-13T09:49:05;102177.38;;;6.27;72.68
12963;BME280;6546;49.882;8.666;2023-02-13T09:51:33;102185.53;;;6.35;72.48
12963;BME280;6546;49.882;8.666;2023-02-13T09:54:07;102184.72;;;6.34;72.44
12963;BME280;6546;49.882;8.666;2023-02-13T09:56:43;102186.03;;;6.42;71.97
12963;BME280;6546;49.882;8.666;2023-02-13T09:59:34;102177.75;;;6.52;71.61
12963;BME280;6546;49.882;8.666;2023-02-13T10:02:22;102185.03;;;6.60;71.55
12963;BME280;6546;49.882;8.666;2023-02-13T10:05:03;102188.44;;;6.60;71.35
12963;BME280;6546;49.882;8.666;2023-02-13T10:07:38;102181.88;;;6.70;70.93
12963;BME280;6546;49.882;8.666;2023-02-13T10:10:19;102193.31;;;6.80;70.51
12963;BME280;6546;49.882;8.666;2023-02-13T10:13:06;102182.34;;;6.77;70.33
12963;BME280;6546;49.882;8.666;2023-02-13T10:15:39;102183.50;;;6.87;70.56
12963;BME280;6546;49.882;8.666;2023-02-13T10:18:17;102187.81;;;6.86;70.30
12963;BME280;6546;49.882;8.666;2023-02-13T10:20:49;102169.31;;;6.80;70.22
12963;BME280;6546;49.882;8.666;2023-02-13T10:23:22;102175.59;;;6.90;70.42
12963;BME280;6546;49.882;8.666;2023-02-13T10:25:59;102182.97;;;6.96;71.07
12963;BME280;6546;49.882;8.666;2023-02-13T10:28:36;102177.66;;;6.99;70.69
12963;BME280;6546;49.882;8.666;2023-02-13T10:31:07;102171.13;;;7.08;70.23
12963;BME280;6546;49.882;8.666;2023-02-13T10:33:48;102172.38;;;7.16;69.97
12963;BME280;6546;49.882;8.666;2023-02-13T10:36:19;102175.91;;;7.29;69.42
12963;BME280;6546;49.882;8.666;2023-02-13T10:38:57;102176.84;;;7.43;68.32
12963;BME280;6546;49.882;8.666;2023-02-13T10:41:37;102175.53;;;7.50;67.60
12963;BME280;6546;49.882;8.666;2023-02-13T10:44:20;102165.44;;;7.61;67.08
12963;BME280;6546;49.882;8.666;2023-02-13T10:47:01;102163.78;;;7.60;66.28
12963;BME280;6546;49.882;8.666;2023-02-13T10:49:40;102154.75;;;7.67;69.84
12963;BME280;6546;49.882;8.666;2023-02-13T10:52:21;102156.03;;;7.74;68.75
12963;BME280;6546;49.882;8.666;2023-02-13T10:55:11;102159.28;;;7.77;66.90
12963;BME280;6546;49.882;8.666;2023-02-13T10:57:56;102157.16;;;7.84;66.11
12963;BME280;6546;49.882;8.666;2023-02-13T11:00:31;102142.50;;;7.84;65.65
12963;BME280;6546;49.882;8.666;2023-02-13T11:03:15;102156.13;;;7.86;65.23
12963;BME280;6546;49.882;8.666;2023-02-13T11:05:43;102156.59;;;8.07;63.94
12963;BME280;6546;49.882;8.666;2023-02-13T11:08:17;102149.28;;;8.14;63.45
12963;BME280;6546;49.882;8.666;2023-02-13T11:10:44;102140.34;;;8.05;63.62
12963;BME280;6546;49.882;8.666;2023-02-13T11:13:15;102145.69;;;8.16;63.21
12963;BME280;6546;49.882;8.666;2023-02-13T11:15:55;102149.34;;;8.26;63.42
12963;BME280;6546;49.882;8.666;2023-02-13T11:18:24;102140.06;;;8.24;62.86
12963;BME280;6546;49.882;8.666;2023-02-13T11:20:58;102133.69;;;8.15;62.36
12963;BME280;6546;49.882;8.666;2023-02-13T11:23:36;102128.63;;;8.28;61.49
12963;BME280;6546;49.882;8.666;2023-02-13T11:26:05;102131.47;;;8.37;61.52
12963;BME280;6546;49.882;8.666;2023-02-13T11:28:36;102122.53;;;8.43;61.65
12963;BME280;6546;49.882;8.666;2023-02-13T11:31:21;102119.63;;;8.48;61.60
12963;BME280;6546;49.882;8.666;2023-02-13T11:33:48;102116.41;;;8.44;62.07
12963;BME280;6546;49.882;8.666;2023-02-13T11:36:24;102120.47;;;8.48;62.25
12963;BME280;6546;49.882;8.666;2023-02-13T11:39:01;102111.72;;;8.63;62.14
12963;BME280;6546;49.882;8.666;2023-02-13T11:41:30;102121.59;;;8.57;62.41
12963;BME280;6546;49.882;8.666;2023-02-13T11:43:59;102119.69;;;8.73;60.98
12963;BME280;6546;49.882;8.666;2023-02-13T11:46:27;102108.22;;;8.64;60.99
12963;BME280;6546;49.882;8.666;2023-02-13T11:48:57;102115.88;;;8.66;61.11
12963;BME280;6546;49.882;8.666;2023-02-13T11:51:35;102116.97;;;8.88;59.23
12963;BME280;6546;49.882;8.666;2023-02-13T11:54:04;102109.50;;;8.84;59.57
12963;BME280;6546;49.882;8.666;2023-02-13T11:56:47;102101.22;;;8.79;60.13
12963;BME280;6546;49.882;8.666;2023-02-13T11:59:14;102094.06;;;8.70;60.60
12963;BME280;6546;49.882;8.666;2023-02-13T12:01:41;102104.34;;;8.84;60.56
12963;BME280;6546;49.882;8.666;2023-02-13T12:04:13;102102.47;;;8.86;60.68
12963;BME280;6546;49.882;8.666;2023-02-13T12:06:57;102105.38;;;8.94;60.11
12963;BME280;6546;49.882;8.666;2023-02-13T12:09:26;102102.47;;;8.98;60.21
12963;BME280;6546;49.882;8.666;2023-02-13T12:11:56;102101.47;;;9.01;60.65
12963;BME280;6546;49.882;8.666;2023-02-13T12:14:25;102096.81;;;9.06;61.18
12963;BME280;6546;49.882;8.666;2023-02-13T12:16:54;102093.81;;;9.12;60.93
12963;BME280;6546;49.882;8.666;2023-02-13T12:19:25;102092.69;;;9.16;60.99
12963;BME280;6546;49.882;8.666;2023-02-13T12:22:03;102102.09;;;9.17;61.01
12963;BME280;6546;49.882;8.666;2023-02-13T12:24:47;102095.78;;;9.21;60.91
12963;BME280;6546;49.882;8.666;2023-02-13T12:27:22;102094.97;;;9.33;60.68
12963;BME280;6546;49.882;8.666;2023-02-13T12:30:05;102094.44;;;9.28;60.53
12963;BME280;6546;49.882;8.666;2023-02-13T12:32:42;102086.47;;;9.44;60.42
12963;BME280;6546;49.882;8.666;2023-02-13T12:35:30;102084.06;;;9.54;59.34
12963;BME280;6546;49.882;8.666;2023-02-13T12:38:03;102085.50;;;9.58;58.73
12963;BME280;6546;49.882;8.666;2023-02-13T12:40:56;102078.47;;;9.60;58.91
12963;BME280;6546;49.882;8.666;2023-02-13T12:43:45;102079.72;;;9.54;59.31
12963;BME280;6546;49.882;8.666;2023-02-13T12:46:21;102081.66;;;9.63;59.31
12963;BME280;6546;49.882;8.666;2023-02-13T12:48:59;102078.47;;;9.72;59.20
12963;BME280;6546;49.882;8.666;2023-02-13T12:51:37;102075.06;;;9.72;58.98
12963;BME280;6546;49.882;8.666;2023-02-13T12:54:26;102055.50;;;9.68;58.62
12963;BME280;6546;49.882;8.666;2023-02-13T12:57:07;102068.00;;;9.74;58.15
12963;BME280;6546;49.882;8.666;2023-02-13T12:59:48;102067.69;;;9.78;58.37
12963;BME280;6546;49.882;8.666;2023-02-13T13:05:42;102054.41;;;9.83;57.77
12963;BME280;6546;49.882;8.666;2023-02-13T13:08:23;102050.53;;;10.01;57.63
12963;BME280;6546;49.882;8.666;2023-02-13T13:11:06;102047.13;;;10.00;57.00
12963;BME280;6546;49.882;8.666;2023-02-13T13:13:45;102048.97;;;9.98;56.91
12963;BME280;6546;49.882;8.666;2023-02-13T13:16:23;102032.88;;;9.82;56.78
12963;BME280;6546;49.882;8.666;2023-02-13T13:19:00;102048.94;;;9.87;57.20
12963;BME280;6546;49.882;8.666;2023-02-13T13:21:38;102036.91;;;9.86;57.48
12963;BME280;6546;49.882;8.666;2023-02-13T13:24:26;102026.91;;;9.82;57.68
12963;BME280;6546;49.882;8.666;2023-02-13T13:26:56;102041.00;;;10.01;57.03
12963;BME280;6546;49.882;8.666;2023-02-13T13:29:28;102023.16;;;10.10;56.23
12963;BME280;6546;49.882;8.666;2023-02-13T13:32:00;102041.69;;;10.16;56.02
12963;BME280;6546;49.882;8.666;2023-02-13T13:34:29;102033.84;;;10.18;56.24
12963;BME280;6546;49.882;8.666;2023-02-13T13:37:01;102011.50;;;10.04;55.35
12963;BME280;6546;49.882;8.666;2023-02-13T13:39:38;102039.75;;;10.07;55.86
12963;BME280;6546;49.882;8.666;2023-02-13T13:42:12;102038.19;;;10.17;55.65
12963;BME280;6546;49.882;8.666;2023-02-13T13:45:07;102029.00;;;10.24;55.18
12963;BME280;6546;49.882;8.666;2023-02-13T13:47:51;102025.84;;;10.21;55.16
12963;BME280;6546;49.882;8.666;2023-02-13T13:50:22;102014.53;;;10.22;55.35